createdAt,value
2018-06-17T00:00:41.877Z,14.93
2018-06-17T00:03:11.693Z,17.33
2018-06-17T00:05:41.735Z,16.13
2018-06-17T00:08:11.761Z,15.90
2018-06-17T00:10:41.937Z,15.37
2018-06-17T00:13:12.111Z,15.97
2018-06-17T00:15:42.297Z,20.10
2018-06-17T00:18:12.264Z,18.30
2018-06-17T00:20:41.766Z,24.37
2018-06-17T00:23:11.173Z,21.13
2018-06-17T00:25:40.523Z,21.57
2018-06-17T00:28:09.976Z,19.40
2018-06-17T00:30:39.411Z,18.13
2018-06-17T00:33:08.760Z,17.03
2018-06-17T00:35:38.194Z,15.53
2018-06-17T00:38:07.570Z,15.67
2018-06-17T00:40:37.045Z,16.67
2018-06-17T00:43:06.481Z,17.27
2018-06-17T00:45:35.863Z,16.57
2018-06-17T00:48:05.305Z,16.07
2018-06-17T00:50:34.773Z,17.53
2018-06-17T00:53:04.168Z,17.10
2018-06-17T00:55:33.612Z,15.83
2018-06-17T00:58:03.065Z,17.30
2018-06-17T01:00:32.438Z,16.60
2018-06-17T01:03:01.876Z,17.13
2018-06-17T01:05:31.315Z,18.87
2018-06-17T01:08:00.748Z,17.90
2018-06-17T01:10:30.201Z,17.30
2018-06-17T01:12:59.656Z,19.93
2018-06-17T01:15:29.012Z,17.63
2018-06-17T01:17:58.453Z,19.03
2018-06-17T01:20:27.874Z,17.97
2018-06-17T01:22:57.297Z,18.70
2018-06-17T01:25:26.764Z,18.37
2018-06-17T01:27:56.184Z,18.43
2018-06-17T01:30:25.674Z,19.63
2018-06-17T01:32:55.112Z,18.33
2018-06-17T01:35:24.529Z,20.00
2018-06-17T01:37:54.012Z,19.27
2018-06-17T01:40:23.410Z,18.53
2018-06-17T01:42:52.827Z,20.60
2018-06-17T01:45:22.300Z,18.27
2018-06-17T01:47:51.662Z,20.50
2018-06-17T01:50:21.092Z,19.40
2018-06-17T01:52:50.550Z,17.67
2018-06-17T01:55:19.724Z,16.93
2018-06-17T01:57:49.184Z,16.17
2018-06-17T02:00:18.589Z,19.80
2018-06-17T02:02:48.632Z,19.17
2018-06-17T02:05:23.445Z,18.90
2018-06-17T02:07:58.040Z,19.73
2018-06-17T02:10:32.550Z,21.97
2018-06-17T02:13:01.760Z,16.20
2018-06-17T02:15:31.216Z,15.27
2018-06-17T02:18:00.597Z,14.73
2018-06-17T02:20:30.061Z,15.87
2018-06-17T02:22:59.480Z,15.97
2018-06-17T02:25:28.961Z,15.03
2018-06-17T02:27:58.407Z,15.07
2018-06-17T02:30:27.849Z,15.50
2018-06-17T02:32:57.268Z,14.20
2018-06-17T02:35:26.722Z,16.77
2018-06-17T02:37:56.125Z,14.90
2018-06-17T02:40:25.606Z,13.30
2018-06-17T02:42:55.127Z,14.93
2018-06-17T02:45:29.685Z,13.80
2018-06-17T02:49:02.062Z,14.83
2018-06-17T02:51:36.749Z,12.73
2018-06-17T02:54:11.473Z,14.27
2018-06-17T02:56:41.028Z,12.70
2018-06-17T02:59:10.423Z,13.80
2018-06-17T03:01:39.860Z,12.47
2018-06-17T03:04:09.261Z,12.27
2018-06-17T03:06:38.685Z,13.27
2018-06-17T03:09:10.159Z,11.03
2018-06-17T03:11:39.632Z,13.33
2018-06-17T03:14:09.652Z,29.00
2018-06-17T03:16:39.350Z,13.03
2018-06-17T03:19:08.867Z,15.60
2018-06-17T03:21:38.389Z,13.70
2018-06-17T03:24:07.823Z,12.57
2018-06-17T03:26:42.501Z,12.80
2018-06-17T03:29:17.189Z,14.07
2018-06-17T03:31:51.707Z,15.70
2018-06-17T03:34:21.110Z,13.40
2018-06-17T03:36:50.556Z,17.47
2018-06-17T03:39:19.928Z,20.67
2018-06-17T03:41:49.314Z,14.63
2018-06-17T03:44:18.734Z,20.23
2018-06-17T03:46:48.115Z,12.80
2018-06-17T03:49:17.488Z,13.80
2018-06-17T03:51:46.873Z,11.97
2018-06-17T03:54:16.335Z,12.87
2018-06-17T03:56:45.710Z,9.20
2018-06-17T03:59:15.082Z,20.73
2018-06-17T04:01:44.525Z,12.27
2018-06-17T04:04:13.924Z,11.80
2018-06-17T04:06:43.312Z,14.37
2018-06-17T04:09:12.672Z,11.77
2018-06-17T04:11:42.039Z,13.07
2018-06-17T04:14:11.388Z,13.47
2018-06-17T04:16:40.847Z,19.70
2018-06-17T04:19:10.287Z,16.90
2018-06-17T04:21:39.700Z,10.83
2018-06-17T04:24:09.147Z,19.37
2018-06-17T04:26:38.557Z,13.13
2018-06-17T04:29:07.944Z,12.00
2018-06-17T04:31:38.207Z,13.63
2018-06-17T04:34:07.593Z,18.10
2018-06-17T04:36:37.021Z,13.90
2018-06-17T04:39:08.944Z,20.57
2018-06-17T04:41:38.367Z,16.20
2018-06-17T04:44:07.746Z,14.67
2018-06-17T04:46:37.195Z,10.37
2018-06-17T04:49:06.575Z,16.93
2018-06-17T04:51:35.995Z,14.90
2018-06-17T04:54:05.390Z,16.83
2018-06-17T04:56:34.857Z,19.70
2018-06-17T04:59:04.300Z,19.03
2018-06-17T05:01:33.672Z,15.80
2018-06-17T05:04:03.064Z,15.23
2018-06-17T05:06:32.430Z,13.80
2018-06-17T05:09:01.847Z,14.73
2018-06-17T05:11:31.240Z,13.43
2018-06-17T05:14:00.651Z,16.10
2018-06-17T05:16:30.070Z,16.97
2018-06-17T05:18:59.503Z,15.27
2018-06-17T05:21:28.924Z,13.00
2018-06-17T05:23:58.367Z,15.83
2018-06-17T05:26:28.108Z,15.33
2018-06-17T05:28:57.497Z,12.43
2018-06-17T05:31:26.900Z,16.60
2018-06-17T05:33:56.355Z,18.03
2018-06-17T05:36:25.772Z,18.33
2018-06-17T05:38:55.242Z,19.07
2018-06-17T05:41:24.680Z,21.23
2018-06-17T05:43:54.080Z,13.83
2018-06-17T05:46:23.514Z,14.27
2018-06-17T05:48:53.099Z,16.73
2018-06-17T05:51:22.567Z,16.13
2018-06-17T05:53:52.000Z,12.93
2018-06-17T05:56:21.673Z,11.37
2018-06-17T05:58:51.076Z,9.70
2018-06-17T06:01:20.499Z,12.63
2018-06-17T06:03:50.056Z,11.57
2018-06-17T06:06:19.484Z,9.20
2018-06-17T06:08:48.901Z,12.10
2018-06-17T06:11:18.337Z,12.70
2018-06-17T06:13:47.750Z,9.60
2018-06-17T06:16:17.169Z,10.07
2018-06-17T06:18:46.628Z,13.90
2018-06-17T06:21:16.102Z,11.67
2018-06-17T06:23:50.639Z,12.97
2018-06-17T06:26:33.662Z,15.33
2018-06-17T06:29:09.458Z,14.73
2018-06-17T06:31:39.292Z,16.40
2018-06-17T06:34:08.727Z,13.80
2018-06-17T06:36:38.168Z,16.00
2018-06-17T06:39:09.774Z,19.67
2018-06-17T06:41:39.192Z,15.77
2018-06-17T06:44:08.603Z,11.27
2018-06-17T06:46:38.059Z,10.00
2018-06-17T06:49:07.455Z,12.80
2018-06-17T06:51:37.033Z,8.90
2018-06-17T06:54:06.540Z,10.93
2018-06-17T06:56:36.036Z,15.07
2018-06-17T06:59:05.446Z,16.10
2018-06-17T07:01:51.744Z,13.70
2018-06-17T07:04:38.171Z,18.20
2018-06-17T07:07:24.791Z,11.50
2018-06-17T07:10:11.509Z,18.90
2018-06-17T07:12:40.944Z,16.87
2018-06-17T07:15:10.350Z,11.83
2018-06-17T07:17:56.744Z,19.50
2018-06-17T07:20:26.192Z,16.20
2018-06-17T07:22:55.626Z,17.70
2018-06-17T07:26:47.712Z,22.90
2018-06-17T07:29:35.421Z,18.33
2018-06-17T07:32:04.910Z,22.27
2018-06-17T07:34:34.391Z,21.33
2018-06-17T07:37:04.032Z,16.30
2018-06-17T07:40:15.445Z,19.53
2018-06-17T07:42:45.148Z,21.63
2018-06-17T07:45:14.617Z,23.73
2018-06-17T07:47:44.071Z,19.40
2018-06-17T07:50:30.417Z,19.30
2018-06-17T07:53:14.075Z,18.40
2018-06-17T07:55:43.478Z,18.20
2018-06-17T07:58:13.273Z,20.27
2018-06-17T08:00:42.701Z,21.63
2018-06-17T08:03:12.388Z,19.00
2018-06-17T08:05:41.827Z,19.90
2018-06-17T08:08:11.281Z,14.00
2018-06-17T08:10:40.761Z,13.50
2018-06-17T08:13:10.155Z,23.57
2018-06-17T08:15:39.637Z,20.40
2018-06-17T08:18:09.007Z,16.07
2018-06-17T08:20:38.516Z,11.80
2018-06-17T08:23:07.969Z,14.23
2018-06-17T08:25:37.417Z,12.93
2018-06-17T08:28:06.855Z,16.40
2018-06-17T08:30:36.353Z,16.67
2018-06-17T08:33:05.820Z,13.13
2018-06-17T08:35:35.231Z,16.37
2018-06-17T08:38:04.673Z,11.03
2018-06-17T08:40:33.995Z,13.70
2018-06-17T08:43:03.488Z,6.57
2018-06-17T08:45:32.889Z,8.70
2018-06-17T08:48:02.332Z,9.30
2018-06-17T08:50:31.783Z,8.57
2018-06-17T08:53:01.160Z,9.77
2018-06-17T08:55:30.727Z,6.77
2018-06-17T08:58:00.184Z,5.10
2018-06-17T09:00:29.612Z,8.83
2018-06-17T09:02:59.130Z,4.87
2018-06-17T09:05:28.509Z,10.40
2018-06-17T09:07:57.889Z,5.47
2018-06-17T09:10:27.280Z,3.93
2018-06-17T09:12:57.673Z,6.43
2018-06-17T09:15:27.044Z,6.00
2018-06-17T09:17:56.539Z,5.93
2018-06-17T09:20:25.871Z,11.87
2018-06-17T09:22:55.888Z,11.43
2018-06-17T09:25:25.322Z,11.33
2018-06-17T09:27:54.801Z,10.10
2018-06-17T09:30:24.214Z,8.33
2018-06-17T09:32:53.669Z,10.50
2018-06-17T09:35:23.354Z,11.10
2018-06-17T09:37:52.945Z,8.73
2018-06-17T09:40:22.554Z,9.33
2018-06-17T09:42:52.063Z,9.27
2018-06-17T09:45:21.776Z,9.20
2018-06-17T09:47:54.218Z,16.30
2018-06-17T09:50:23.637Z,11.67
2018-06-17T09:52:53.590Z,10.47
2018-06-17T09:55:23.021Z,10.97
2018-06-17T09:57:52.425Z,9.17
2018-06-17T10:00:22.314Z,9.53
2018-06-17T10:02:56.244Z,7.23
2018-06-17T10:05:26.139Z,7.97
2018-06-17T10:07:55.695Z,9.80
2018-06-17T10:11:00.924Z,4.70
2018-06-17T10:13:46.070Z,9.20
2018-06-17T10:16:16.301Z,5.63
2018-06-17T10:18:45.792Z,7.47
2018-06-17T10:21:15.248Z,8.53
2018-06-17T10:23:44.663Z,5.90
2018-06-17T10:26:14.076Z,7.33
2018-06-17T10:28:43.580Z,8.67
2018-06-17T10:31:13.038Z,9.30
2018-06-17T10:33:42.533Z,5.70
2018-06-17T10:36:11.893Z,14.63
2018-06-17T10:38:41.334Z,9.93
2018-06-17T10:41:10.767Z,6.30
2018-06-17T10:43:40.293Z,6.97
2018-06-17T10:46:09.517Z,7.93
2018-06-17T10:48:38.976Z,3.53
2018-06-17T10:51:08.480Z,4.33
2018-06-17T10:53:37.986Z,4.87
2018-06-17T10:56:07.630Z,4.93
2018-06-17T10:58:37.102Z,5.20
2018-06-17T11:01:06.755Z,4.03
2018-06-17T11:03:36.263Z,4.50
2018-06-17T11:06:06.007Z,2.77
2018-06-17T11:08:35.547Z,5.87
2018-06-17T11:11:04.962Z,4.80
2018-06-17T11:13:34.177Z,2.53
2018-06-17T11:16:03.583Z,2.60
2018-06-17T11:18:33.041Z,4.93
2018-06-17T11:21:02.499Z,1.27
2018-06-17T11:23:31.863Z,4.60
2018-06-17T11:26:01.305Z,10.80
2018-06-17T11:28:30.724Z,1.27
2018-06-17T11:31:00.112Z,1.97
2018-06-17T11:33:29.501Z,2.53
2018-06-17T11:35:58.932Z,1.40
2018-06-17T11:38:28.305Z,1.53
2018-06-17T11:40:57.698Z,2.10
2018-06-17T11:43:27.114Z,3.20
2018-06-17T11:45:56.554Z,2.03
2018-06-17T11:48:25.898Z,2.63
2018-06-17T11:50:55.372Z,0.90
2018-06-17T11:53:24.810Z,1.80
2018-06-17T11:55:54.264Z,1.20
2018-06-17T11:58:23.709Z,1.77
2018-06-17T12:00:53.152Z,1.20
2018-06-17T12:03:22.574Z,1.47
2018-06-17T12:05:52.066Z,3.77
2018-06-17T12:08:21.517Z,2.50
2018-06-17T12:10:50.964Z,1.83
2018-06-17T12:13:20.484Z,1.97
2018-06-17T12:15:49.975Z,3.27
2018-06-17T12:18:19.440Z,0.70
2018-06-17T12:20:48.971Z,0.63
2018-06-17T12:23:18.441Z,1.37
2018-06-17T12:25:48.196Z,1.30
2018-06-17T12:28:17.637Z,3.03
2018-06-17T12:30:47.015Z,4.90
2018-06-17T12:33:16.412Z,0.80
2018-06-17T12:35:45.840Z,2.93
2018-06-17T12:38:15.311Z,2.63
2018-06-17T12:40:44.810Z,1.00
2018-06-17T12:43:14.231Z,4.23
2018-06-17T12:45:43.781Z,2.93
2018-06-17T12:48:13.410Z,1.43
2018-06-17T12:50:42.907Z,0.60
2018-06-17T12:53:12.312Z,5.53
2018-06-17T12:55:41.789Z,0.80
2018-06-17T12:58:11.269Z,1.27
2018-06-17T13:00:40.749Z,1.60
2018-06-17T13:03:10.168Z,1.40
2018-06-17T13:05:39.572Z,3.20
2018-06-17T13:08:09.024Z,0.80
2018-06-17T13:10:38.496Z,1.60
2018-06-17T13:13:08.249Z,1.10
2018-06-17T13:15:37.705Z,1.23
2018-06-17T13:18:07.211Z,2.30
2018-06-17T13:20:36.663Z,0.80
2018-06-17T13:23:06.175Z,1.37
2018-06-17T13:25:35.668Z,0.70
2018-06-17T13:28:05.064Z,0.60
2018-06-17T13:30:34.509Z,0.73
2018-06-17T13:33:04.054Z,1.00
2018-06-17T13:35:33.536Z,1.70
2018-06-17T13:38:02.941Z,3.47
2018-06-17T13:40:32.407Z,1.33
2018-06-17T13:43:01.850Z,1.00
2018-06-17T13:45:31.298Z,2.50
2018-06-17T13:48:00.800Z,2.30
2018-06-17T13:50:30.260Z,1.70
2018-06-17T13:52:59.665Z,1.13
2018-06-17T13:55:29.103Z,4.23
2018-06-17T13:57:58.528Z,2.50
2018-06-17T14:00:27.936Z,2.10
2018-06-17T14:02:57.535Z,1.43
2018-06-17T14:05:26.969Z,6.00
2018-06-17T14:07:56.406Z,3.60
2018-06-17T14:10:25.835Z,0.60
2018-06-17T14:12:55.299Z,3.90
2018-06-17T14:15:24.757Z,7.30
2018-06-17T14:17:54.197Z,7.47
2018-06-17T14:20:23.574Z,2.77
2018-06-17T14:22:53.010Z,7.83
2018-06-17T14:25:22.438Z,6.97
2018-06-17T14:27:51.866Z,4.10
2018-06-17T14:30:21.348Z,3.20
2018-06-17T14:32:50.847Z,5.10
2018-06-17T14:35:20.268Z,6.90
2018-06-17T14:37:49.736Z,3.50
2018-06-17T14:40:19.146Z,7.10
2018-06-17T14:42:53.725Z,3.00
2018-06-17T14:45:28.335Z,5.17
2018-06-17T14:48:03.076Z,2.83
2018-06-17T14:50:37.769Z,4.53
2018-06-17T14:53:07.747Z,1.43
2018-06-17T14:55:37.137Z,3.73
2018-06-17T14:58:06.976Z,6.07
2018-06-17T15:00:36.393Z,2.20
2018-06-17T15:03:06.119Z,2.27
2018-06-17T15:05:35.635Z,7.47
2018-06-17T15:08:05.111Z,2.60
2018-06-17T15:10:34.579Z,4.13
2018-06-17T15:13:04.049Z,3.63
2018-06-17T15:15:33.477Z,3.90
2018-06-17T15:18:03.348Z,3.27
2018-06-17T15:20:32.749Z,2.50
2018-06-17T15:23:02.218Z,1.73
2018-06-17T15:25:31.611Z,3.50
2018-06-17T15:28:01.087Z,2.97
2018-06-17T15:30:30.465Z,2.20
2018-06-17T15:33:05.217Z,9.23
2018-06-17T15:35:39.839Z,4.73
2018-06-17T15:38:14.713Z,4.80
2018-06-17T15:40:49.536Z,5.13
2018-06-17T15:43:19.012Z,6.97
2018-06-17T15:45:48.461Z,3.80
2018-06-17T15:48:17.904Z,4.40
2018-06-17T15:50:47.322Z,8.40
2018-06-17T15:53:16.710Z,3.63
2018-06-17T15:55:46.198Z,5.10
2018-06-17T15:58:15.558Z,4.80
2018-06-17T16:00:44.993Z,12.00
2018-06-17T16:03:14.468Z,4.07
2018-06-17T16:05:43.871Z,10.63
2018-06-17T16:08:13.287Z,4.10
2018-06-17T16:10:42.655Z,7.13
2018-06-17T16:13:17.071Z,2.63
2018-06-17T16:15:51.499Z,8.57
2018-06-17T16:18:26.072Z,2.43
2018-06-17T16:21:05.739Z,5.10
2018-06-17T16:23:35.880Z,6.77
2018-06-17T16:26:05.378Z,5.37
2018-06-17T16:28:34.757Z,6.70
2018-06-17T16:31:04.276Z,5.50
2018-06-17T16:33:33.682Z,2.53
2018-06-17T16:36:03.156Z,4.43
2018-06-17T16:38:32.683Z,5.43
2018-06-17T16:41:02.309Z,2.93
2018-06-17T16:43:31.797Z,3.83
2018-06-17T16:46:01.191Z,6.10
2018-06-17T16:48:30.670Z,5.63
2018-06-17T16:51:05.330Z,5.27
2018-06-17T16:53:40.094Z,4.83
2018-06-17T16:56:14.808Z,3.27
2018-06-17T16:58:49.414Z,9.77
2018-06-17T17:01:18.791Z,7.63
2018-06-17T17:03:48.208Z,4.60
2018-06-17T17:06:17.544Z,11.17
2018-06-17T17:08:47.006Z,3.87
2018-06-17T17:11:16.394Z,5.77
2018-06-17T17:13:45.792Z,4.87
2018-06-17T17:16:15.223Z,9.57
2018-06-17T17:18:44.699Z,5.17
2018-06-17T17:21:14.160Z,4.40
2018-06-17T17:23:43.641Z,3.13
2018-06-17T17:26:13.158Z,5.60
2018-06-17T17:28:42.531Z,2.70
2018-06-17T17:31:11.950Z,6.33
2018-06-17T17:33:46.507Z,11.57
2018-06-17T17:36:21.254Z,8.83
2018-06-17T17:38:55.818Z,6.70
2018-06-17T17:41:25.277Z,11.77
2018-06-17T17:43:54.712Z,6.00
2018-06-17T17:46:29.190Z,6.40
2018-06-17T17:48:58.626Z,9.13
2018-06-17T17:51:28.021Z,5.60
2018-06-17T17:53:57.455Z,5.13
2018-06-17T17:56:26.868Z,4.83
2018-06-17T17:58:56.324Z,4.30
2018-06-17T18:01:25.760Z,3.50
2018-06-17T18:03:55.386Z,5.43
2018-06-17T18:06:24.812Z,5.63
2018-06-17T18:08:54.294Z,6.10
2018-06-17T18:11:23.746Z,7.60
2018-06-17T18:13:53.201Z,6.00
2018-06-17T18:16:22.661Z,6.20
2018-06-17T18:18:52.155Z,8.13
2018-06-17T18:21:21.515Z,4.23
2018-06-17T18:23:50.933Z,6.00
2018-06-17T18:26:25.404Z,6.67
2018-06-17T18:29:00.037Z,7.27
2018-06-17T18:31:33.525Z,5.70
2018-06-17T18:34:08.232Z,5.00
2018-06-17T18:36:37.629Z,7.40
2018-06-17T18:39:08.965Z,6.43
2018-06-17T18:41:38.158Z,11.63
2018-06-17T18:44:07.588Z,6.40
2018-06-17T18:46:37.109Z,4.60
2018-06-17T18:49:06.617Z,5.53
2018-06-17T18:51:36.064Z,7.23
2018-06-17T18:54:05.484Z,8.63
2018-06-17T18:56:34.919Z,11.10
2018-06-17T18:59:04.309Z,9.77
2018-06-17T19:01:33.780Z,4.70
2018-06-17T19:04:03.199Z,4.33
2018-06-17T19:06:32.637Z,5.30
2018-06-17T19:09:07.304Z,4.87
2018-06-17T19:11:41.843Z,5.10
2018-06-17T19:14:16.543Z,11.93
2018-06-17T19:16:51.270Z,8.67
2018-06-17T19:19:20.925Z,9.00
2018-06-17T19:21:50.319Z,3.97
2018-06-17T19:24:19.817Z,6.00
2018-06-17T19:26:49.262Z,4.43
2018-06-17T19:29:18.737Z,6.30
2018-06-17T19:31:48.613Z,9.90
2018-06-17T19:34:18.037Z,7.77
2018-06-17T19:36:47.527Z,6.37
2018-06-17T19:39:16.903Z,9.23
2018-06-17T19:41:46.305Z,5.13
2018-06-17T19:44:15.742Z,5.47
2018-06-17T19:46:45.156Z,12.73
2018-06-17T19:49:14.731Z,8.67
2018-06-17T19:51:49.267Z,4.30
2018-06-17T19:54:24.128Z,9.07
2018-06-17T19:56:58.645Z,4.90
2018-06-17T19:59:33.268Z,6.63
2018-06-17T20:02:02.683Z,4.23
2018-06-17T20:04:32.081Z,8.13
2018-06-17T20:07:01.558Z,7.30
2018-06-17T20:09:30.987Z,4.23
2018-06-17T20:12:00.394Z,7.03
2018-06-17T20:14:29.846Z,7.47
2018-06-17T20:16:59.217Z,4.33
2018-06-17T20:19:28.667Z,5.57
2018-06-17T20:21:58.080Z,5.03
2018-06-17T20:24:28.062Z,8.50
2018-06-17T20:26:57.573Z,10.33
2018-06-17T20:29:26.978Z,3.30
2018-06-17T20:32:01.753Z,3.90
2018-06-17T20:34:36.528Z,5.87
2018-06-17T20:37:11.194Z,5.20
2018-06-17T20:39:51.886Z,5.97
2018-06-17T20:42:26.480Z,7.70
2018-06-17T20:44:55.956Z,4.87
2018-06-17T20:47:25.312Z,8.83
2018-06-17T20:49:54.723Z,5.70
2018-06-17T20:52:23.892Z,10.73
2018-06-17T20:54:53.348Z,8.20
2018-06-17T20:57:22.715Z,3.70
2018-06-17T20:59:52.083Z,7.33
2018-06-17T21:02:21.503Z,14.13
2018-06-17T21:04:50.996Z,4.90
2018-06-17T21:07:20.471Z,10.43
2018-06-17T21:09:50.000Z,4.40
2018-06-17T21:12:19.496Z,5.70
2018-06-17T21:14:48.991Z,6.23
2018-06-17T21:17:18.426Z,6.43
2018-06-17T21:19:52.949Z,7.53
2018-06-17T21:22:27.601Z,4.10
2018-06-17T21:25:02.306Z,6.03
2018-06-17T21:27:36.968Z,11.37
2018-06-17T21:30:06.391Z,21.20
2018-06-17T21:32:35.796Z,7.20
2018-06-17T21:35:05.216Z,5.33
2018-06-17T21:37:34.673Z,4.30
2018-06-17T21:40:04.061Z,5.30
2018-06-17T21:42:33.533Z,13.97
2018-06-17T21:45:02.990Z,14.43
2018-06-17T21:47:32.441Z,10.07
2018-06-17T21:50:01.814Z,8.90
2018-06-17T21:52:31.258Z,7.70
2018-06-17T21:55:00.762Z,8.00
2018-06-17T21:57:30.241Z,8.53
2018-06-17T21:59:59.634Z,12.87
2018-06-17T22:02:29.070Z,6.67
2018-06-17T22:04:58.472Z,7.07
2018-06-17T22:07:27.850Z,6.27
2018-06-17T22:10:02.550Z,11.60
2018-06-17T22:12:36.985Z,6.20
2018-06-17T22:15:11.965Z,5.53
2018-06-17T22:17:46.717Z,6.80
2018-06-17T22:20:16.132Z,7.13
2018-06-17T22:22:45.635Z,9.13
2018-06-17T22:25:15.100Z,6.83
2018-06-17T22:27:44.528Z,5.80
2018-06-17T22:30:14.010Z,13.03
2018-06-17T22:32:43.431Z,8.27
2018-06-17T22:35:12.908Z,6.40
2018-06-17T22:37:42.385Z,4.50
2018-06-17T22:40:11.840Z,10.87
2018-06-17T22:42:41.215Z,11.23
2018-06-17T22:45:10.631Z,7.07
2018-06-17T22:47:45.408Z,6.30
2018-06-17T22:50:14.747Z,4.73
2018-06-17T22:53:01.082Z,4.73
2018-06-17T22:55:30.532Z,11.93
2018-06-17T22:58:05.257Z,6.83
2018-06-17T23:00:40.020Z,12.77
2018-06-17T23:03:14.752Z,6.90
2018-06-17T23:05:49.389Z,13.67
2018-06-17T23:08:24.159Z,12.80
2018-06-17T23:10:53.563Z,9.57
2018-06-17T23:13:22.930Z,10.03
2018-06-17T23:15:52.429Z,14.87
2018-06-17T23:18:21.884Z,11.30
2018-06-17T23:20:51.237Z,9.27
2018-06-17T23:23:20.653Z,8.13
2018-06-17T23:25:50.032Z,7.70
2018-06-17T23:28:19.499Z,5.40
2018-06-17T23:30:48.888Z,10.43
2018-06-17T23:33:18.310Z,8.07
2018-06-17T23:35:47.720Z,9.30
2018-06-17T23:38:17.093Z,10.57
2018-06-17T23:40:46.511Z,7.50
2018-06-17T23:43:15.911Z,10.03
2018-06-17T23:45:50.716Z,6.47
2018-06-17T23:49:27.435Z,6.57
2018-06-17T23:52:02.009Z,7.13
2018-06-17T23:54:36.684Z,11.17
2018-06-17T23:57:06.104Z,9.83
2018-06-17T23:59:35.595Z,8.10
